createdAt,value
2018-11-10T00:00:22.184Z,11.70
2018-11-10T00:04:30.345Z,11.70
2018-11-10T00:08:38.517Z,11.70
2018-11-10T00:12:47.255Z,11.70
2018-11-10T00:16:55.413Z,11.70
2018-11-10T00:21:03.576Z,11.70
2018-11-10T00:25:18.105Z,11.70
2018-11-10T00:29:26.292Z,11.70
2018-11-10T00:33:34.470Z,11.70
2018-11-10T00:37:42.899Z,11.70
2018-11-10T00:41:51.076Z,11.80
2018-11-10T00:45:59.244Z,11.80
2018-11-10T00:50:07.981Z,11.80
2018-11-10T00:54:16.395Z,11.90
2018-11-10T00:58:24.729Z,12.00
2018-11-10T01:02:32.912Z,12.10
2018-11-10T01:06:41.061Z,12.10
2018-11-10T01:10:49.214Z,12.30
2018-11-10T01:14:57.347Z,12.30
2018-11-10T01:19:06.004Z,12.30
2018-11-10T01:23:14.196Z,12.40
2018-11-10T01:27:22.361Z,12.30
2018-11-10T01:31:30.512Z,12.30
2018-11-10T01:35:38.637Z,12.30
2018-11-10T01:39:46.785Z,12.30
2018-11-10T01:43:54.932Z,12.30
2018-11-10T01:48:03.056Z,12.20
2018-11-10T01:52:11.200Z,12.20
2018-11-10T01:56:19.351Z,12.30
2018-11-10T02:00:27.487Z,12.30
2018-11-10T02:04:35.660Z,12.30
2018-11-10T02:08:43.804Z,12.40
2018-11-10T02:12:51.951Z,12.50
2018-11-10T02:17:00.089Z,12.50
2018-11-10T02:21:08.257Z,12.50
2018-11-10T02:25:16.397Z,12.60
2018-11-10T02:29:24.539Z,12.60
2018-11-10T02:33:32.669Z,12.70
2018-11-10T02:37:41.128Z,12.70
2018-11-10T02:41:49.259Z,12.70
2018-11-10T02:45:57.383Z,12.60
2018-11-10T02:50:05.660Z,12.70
2018-11-10T02:54:13.808Z,12.70
2018-11-10T02:58:21.933Z,12.80
2018-11-10T03:02:30.069Z,12.80
2018-11-10T03:06:38.198Z,12.80
2018-11-10T03:10:46.332Z,12.90
2018-11-10T03:14:54.427Z,13.00
2018-11-10T03:19:02.555Z,13.10
2018-11-10T03:23:10.675Z,13.10
2018-11-10T03:27:18.817Z,13.00
2018-11-10T03:31:26.949Z,13.00
2018-11-10T03:35:35.071Z,13.00
2018-11-10T03:39:43.209Z,13.00
2018-11-10T03:43:51.331Z,13.00
2018-11-10T03:47:59.635Z,13.10
2018-11-10T03:52:07.766Z,13.10
2018-11-10T03:56:15.888Z,13.10
2018-11-10T04:00:24.025Z,13.10
2018-11-10T04:04:32.155Z,13.10
2018-11-10T04:08:40.295Z,13.20
2018-11-10T04:12:48.419Z,13.20
2018-11-10T04:16:56.525Z,13.20
2018-11-10T04:21:04.679Z,13.30
2018-11-10T04:25:12.829Z,13.20
2018-11-10T04:29:20.949Z,13.20
2018-11-10T04:33:29.075Z,13.20
2018-11-10T04:37:37.399Z,13.20
2018-11-10T04:41:45.528Z,13.10
2018-11-10T04:45:53.654Z,13.10
2018-11-10T04:50:01.788Z,13.10
2018-11-10T04:54:09.900Z,13.20
2018-11-10T04:58:18.027Z,13.20
2018-11-10T05:02:26.145Z,13.30
2018-11-10T05:06:34.270Z,13.30
2018-11-10T05:10:42.384Z,13.30
2018-11-10T05:14:50.479Z,13.30
2018-11-10T05:18:58.607Z,13.30
2018-11-10T05:23:06.736Z,13.20
2018-11-10T05:27:14.871Z,13.20
2018-11-10T05:31:29.384Z,13.20
2018-11-10T05:35:37.529Z,13.10
2018-11-10T05:39:45.645Z,13.10
2018-11-10T05:43:53.768Z,13.00
2018-11-10T05:48:01.892Z,12.90
2018-11-10T05:52:10.000Z,12.70
2018-11-10T05:56:18.131Z,12.60
2018-11-10T06:00:26.247Z,12.50
2018-11-10T06:04:34.383Z,12.40
2018-11-10T06:08:42.516Z,12.30
2018-11-10T06:12:50.686Z,12.30
2018-11-10T06:16:58.776Z,12.30
2018-11-10T06:21:06.908Z,12.20
2018-11-10T06:25:15.030Z,12.20
2018-11-10T06:29:23.157Z,12.10
2018-11-10T06:33:31.295Z,12.10
2018-11-10T06:37:39.843Z,12.00
2018-11-10T06:41:47.965Z,12.10
2018-11-10T06:45:56.097Z,12.00
2018-11-10T06:50:05.426Z,12.00
2018-11-10T06:54:13.743Z,12.10
2018-11-10T06:58:21.904Z,12.10
2018-11-10T07:02:30.065Z,12.10
2018-11-10T07:06:38.191Z,12.20
2018-11-10T07:10:46.325Z,12.20
2018-11-10T07:14:54.452Z,12.20
2018-11-10T07:19:02.620Z,12.20
2018-11-10T07:23:10.746Z,12.20
2018-11-10T07:27:18.908Z,12.20
2018-11-10T07:31:27.024Z,12.10
2018-11-10T07:35:35.140Z,12.10
2018-11-10T07:39:43.297Z,12.10
2018-11-10T07:43:51.470Z,12.10
2018-11-10T07:47:59.590Z,12.20
2018-11-10T07:52:07.711Z,12.20
2018-11-10T07:56:15.821Z,12.20
2018-11-10T08:00:23.944Z,12.20
2018-11-10T08:04:32.124Z,12.20
2018-11-10T08:08:40.257Z,12.20
2018-11-10T08:12:48.371Z,12.20
2018-11-10T08:16:56.495Z,12.30
2018-11-10T08:21:04.919Z,12.40
2018-11-10T08:25:14.251Z,12.50
2018-11-10T08:29:22.346Z,12.60
2018-11-10T08:33:30.507Z,12.60
2018-11-10T08:37:38.864Z,12.50
2018-11-10T08:41:46.991Z,12.50
2018-11-10T08:45:55.124Z,12.50
2018-11-10T08:50:03.412Z,12.50
2018-11-10T08:54:11.549Z,12.60
2018-11-10T08:58:19.675Z,12.60
2018-11-10T09:02:27.830Z,12.60
2018-11-10T09:06:35.935Z,12.60
2018-11-10T09:10:44.060Z,12.70
2018-11-10T09:14:52.346Z,12.70
2018-11-10T09:19:00.427Z,12.70
2018-11-10T09:23:08.551Z,12.70
2018-11-10T09:27:16.693Z,12.80
2018-11-10T09:31:24.813Z,12.90
2018-11-10T09:35:32.941Z,13.10
2018-11-10T09:39:41.073Z,13.20
2018-11-10T09:43:49.196Z,13.20
2018-11-10T09:47:57.324Z,13.20
2018-11-10T09:52:05.479Z,13.20
2018-11-10T09:56:13.618Z,13.20
2018-11-10T10:00:22.403Z,13.20
2018-11-10T10:04:30.538Z,13.20
2018-11-10T10:08:38.668Z,13.20
2018-11-10T10:12:46.951Z,13.30
2018-11-10T10:16:55.083Z,13.30
2018-11-10T10:21:03.204Z,13.40
2018-11-10T10:25:12.529Z,13.40
2018-11-10T10:29:20.652Z,13.50
2018-11-10T10:33:28.784Z,13.50
2018-11-10T10:37:36.920Z,13.60
2018-11-10T10:41:45.036Z,13.60
2018-11-10T10:45:53.163Z,13.70
2018-11-10T10:50:01.301Z,13.70
2018-11-10T10:54:09.440Z,13.70
2018-11-10T10:58:17.591Z,13.70
2018-11-10T11:02:31.229Z,13.60
2018-11-10T11:06:39.363Z,13.60
2018-11-10T11:10:47.479Z,13.60
2018-11-10T11:14:55.602Z,13.60
2018-11-10T11:19:04.221Z,13.70
2018-11-10T11:23:12.347Z,13.70
2018-11-10T11:27:20.472Z,13.70
2018-11-10T11:31:28.600Z,13.70
2018-11-10T11:35:36.749Z,13.70
2018-11-10T11:39:44.882Z,13.70
2018-11-10T11:43:53.013Z,13.80
2018-11-10T11:48:01.172Z,13.80
2018-11-10T11:52:09.299Z,13.80
2018-11-10T11:56:17.416Z,13.80
2018-11-10T12:00:25.665Z,13.90
2018-11-10T12:04:35.702Z,13.90
2018-11-10T12:08:43.699Z,13.90
2018-11-10T12:12:51.819Z,13.90
2018-11-10T12:17:00.024Z,13.90
2018-11-10T12:21:08.182Z,14.00
2018-11-10T12:25:16.229Z,14.00
2018-11-10T12:29:24.344Z,14.00
2018-11-10T12:33:32.693Z,14.20
2018-11-10T12:37:41.031Z,14.20
2018-11-10T12:41:49.168Z,14.40
2018-11-10T12:45:57.309Z,14.50
2018-11-10T12:50:06.490Z,14.60
2018-11-10T12:54:14.620Z,14.60
2018-11-10T12:58:22.747Z,14.50
2018-11-10T13:02:30.871Z,14.40
2018-11-10T13:06:39.000Z,14.40
2018-11-10T13:10:47.200Z,14.40
2018-11-10T13:14:55.257Z,14.30
2018-11-10T13:19:03.388Z,14.30
2018-11-10T13:23:11.532Z,14.40
2018-11-10T13:27:19.676Z,14.30
2018-11-10T13:31:28.048Z,14.20
2018-11-10T13:35:35.996Z,14.10
2018-11-10T13:39:44.112Z,14.00
2018-11-10T13:43:52.324Z,14.00
2018-11-10T13:48:00.380Z,13.90
2018-11-10T13:52:08.946Z,13.90
2018-11-10T13:56:16.823Z,14.00
2018-11-10T14:00:24.944Z,14.00
2018-11-10T14:04:33.090Z,14.00
2018-11-10T14:08:41.398Z,13.90
2018-11-10T14:12:49.723Z,13.90
2018-11-10T14:16:57.703Z,13.80
2018-11-10T14:21:05.829Z,13.70
2018-11-10T14:25:15.008Z,13.70
2018-11-10T14:29:23.148Z,13.70
2018-11-10T14:33:31.287Z,13.80
2018-11-10T14:37:39.452Z,13.70
2018-11-10T14:41:47.669Z,13.70
2018-11-10T14:45:55.795Z,13.60
2018-11-10T14:50:04.262Z,13.60
2018-11-10T14:54:12.392Z,13.50
2018-11-10T14:58:20.519Z,13.50
2018-11-10T15:02:28.668Z,13.40
2018-11-10T15:06:36.884Z,13.30
2018-11-10T15:10:45.012Z,13.30
2018-11-10T15:14:54.200Z,13.30
2018-11-10T15:19:02.380Z,13.30
2018-11-10T15:23:10.514Z,13.30
2018-11-10T15:27:18.631Z,13.30
2018-11-10T15:31:26.796Z,13.20
2018-11-10T15:35:34.920Z,13.30
2018-11-10T15:39:43.851Z,13.20
2018-11-10T15:43:52.932Z,13.20
2018-11-10T15:48:01.064Z,13.10
2018-11-10T15:52:09.301Z,13.10
2018-11-10T15:56:18.462Z,13.10
2018-11-10T16:00:26.600Z,13.10
2018-11-10T16:04:34.752Z,13.10
2018-11-10T16:08:42.872Z,13.00
2018-11-10T16:12:50.988Z,13.00
2018-11-10T16:16:59.139Z,13.10
2018-11-10T16:21:07.264Z,13.00
2018-11-10T16:25:15.508Z,13.00
2018-11-10T16:29:23.703Z,13.00
2018-11-10T16:33:31.820Z,13.00
2018-11-10T16:37:40.105Z,13.00
2018-11-10T16:41:48.244Z,13.00
2018-11-10T16:45:56.360Z,13.00
2018-11-10T16:50:04.739Z,13.00
2018-11-10T16:54:12.908Z,13.00
2018-11-10T16:58:21.033Z,13.00
2018-11-10T17:02:29.158Z,13.00
2018-11-10T17:06:37.285Z,13.00
2018-11-10T17:10:45.470Z,13.00
2018-11-10T17:14:53.885Z,13.00
2018-11-10T17:19:02.160Z,13.00
2018-11-10T17:23:10.279Z,12.90
2018-11-10T17:27:18.474Z,12.90
2018-11-10T17:31:26.617Z,12.90
2018-11-10T17:35:34.751Z,12.90
2018-11-10T17:39:43.127Z,12.80
2018-11-10T17:43:51.116Z,12.80
2018-11-10T17:47:59.263Z,12.80
2018-11-10T17:52:07.463Z,12.80
2018-11-10T17:56:15.668Z,12.80
2018-11-10T18:00:23.846Z,12.80
2018-11-10T18:04:31.971Z,12.80
2018-11-10T18:08:40.207Z,12.80
2018-11-10T18:12:48.542Z,12.70
2018-11-10T18:16:56.727Z,12.80
2018-11-10T18:21:04.931Z,12.70
2018-11-10T18:25:13.149Z,12.70
2018-11-10T18:29:21.233Z,12.70
2018-11-10T18:33:29.376Z,12.70
2018-11-10T18:37:37.503Z,12.70
2018-11-10T18:41:45.745Z,12.60
2018-11-10T18:45:53.933Z,12.50
2018-11-10T18:50:02.093Z,12.30
2018-11-10T18:54:10.323Z,12.30
2018-11-10T18:58:18.562Z,12.20
2018-11-10T19:02:26.631Z,12.10
2018-11-10T19:06:34.792Z,12.10
2018-11-10T19:10:42.963Z,12.00
2018-11-10T19:14:51.100Z,12.00
2018-11-10T19:18:59.323Z,12.00
2018-11-10T19:23:07.532Z,12.00
2018-11-10T19:27:15.585Z,12.00
2018-11-10T19:31:23.736Z,11.90
2018-11-10T19:35:31.958Z,11.90
2018-11-10T19:39:40.188Z,11.90
2018-11-10T19:43:48.465Z,11.80
2018-11-10T19:47:56.581Z,11.80
2018-11-10T19:52:05.120Z,11.80
2018-11-10T19:56:13.139Z,11.80
2018-11-10T20:00:22.645Z,11.80
2018-11-10T20:04:30.784Z,11.80
2018-11-10T20:08:38.900Z,11.80
2018-11-10T20:12:47.104Z,11.80
2018-11-10T20:16:55.237Z,11.80
2018-11-10T20:21:03.436Z,11.90
2018-11-10T20:25:12.735Z,11.90
2018-11-10T20:29:20.879Z,11.90
2018-11-10T20:33:29.040Z,12.00
2018-11-10T20:37:37.265Z,12.00
2018-11-10T20:41:45.411Z,12.00
2018-11-10T20:45:53.696Z,12.00
2018-11-10T20:50:01.835Z,12.00
2018-11-10T20:54:09.965Z,12.00
2018-11-10T20:58:18.084Z,12.00
2018-11-10T21:02:26.315Z,11.90
2018-11-10T21:06:34.460Z,11.90
2018-11-10T21:10:42.581Z,11.90
2018-11-10T21:14:50.729Z,12.00
2018-11-10T21:18:58.852Z,12.00
2018-11-10T21:23:06.981Z,11.90
2018-11-10T21:27:15.097Z,11.90
2018-11-10T21:31:23.365Z,12.00
2018-11-10T21:35:31.693Z,12.00
2018-11-10T21:39:39.636Z,12.00
2018-11-10T21:43:47.836Z,11.90
2018-11-10T21:47:56.000Z,11.90
2018-11-10T21:52:04.139Z,11.90
2018-11-10T21:56:12.264Z,11.90
2018-11-10T22:00:21.655Z,11.90
2018-11-10T22:04:29.789Z,11.80
2018-11-10T22:08:37.926Z,11.70
2018-11-10T22:12:46.303Z,11.70
2018-11-10T22:16:54.467Z,11.80
2018-11-10T22:21:02.583Z,11.80
2018-11-10T22:25:11.569Z,11.80
2018-11-10T22:29:19.716Z,11.80
2018-11-10T22:33:27.847Z,11.80
2018-11-10T22:37:36.075Z,11.90
2018-11-10T22:41:44.227Z,11.90
2018-11-10T22:45:52.445Z,11.90
2018-11-10T22:50:00.673Z,11.90
2018-11-10T22:54:08.892Z,11.80
2018-11-10T22:58:17.029Z,11.80
2018-11-10T23:02:25.213Z,11.80
2018-11-10T23:06:33.338Z,11.80
2018-11-10T23:10:41.481Z,11.80
2018-11-10T23:14:49.599Z,11.80
2018-11-10T23:18:57.724Z,11.80
2018-11-10T23:23:06.166Z,11.80
2018-11-10T23:27:14.248Z,11.80
2018-11-10T23:31:22.376Z,11.80
2018-11-10T23:35:30.529Z,11.80
2018-11-10T23:39:38.645Z,11.80
2018-11-10T23:43:46.779Z,11.80
2018-11-10T23:47:54.916Z,11.80
2018-11-10T23:52:03.039Z,11.80
2018-11-10T23:56:11.155Z,11.80
